Time;durP1;ratioP1;P1;durP2;ratioP2;P2;SDS_P1;SDS_P2;PMS_P1;PMS_P2;Temp;Humidity;BMP_temperature;BMP_pressure;BME280_temperature;BME280_humidity;BME280_pressure;Samples;Min_cycle;Max_cycle;Signal;HPM_P1;HPM_P2
2023/06/11 00:00:08;;;;;;;1.80;1.67;;;14.10;99.90;13.40;101254;;;;589215;243;24138;-78
2023/06/11 00:02:36;;;;;;;5.50;1.67;;;14.10;99.90;13.40;101247;;;;586763;244;24095;-80
2023/06/11 00:05:07;;;;;;;2.93;2.00;;;13.90;99.90;13.30;101244;;;;589347;243;24136;-81
2023/06/11 00:07:32;;;;;;;4.33;1.70;;;13.90;99.90;13.20;101249;;;;580158;244;24159;-80
2023/06/11 00:10:00;;;;;;;3.67;2.00;;;13.90;99.90;13.20;101243;;;;588945;243;24068;-79
2023/06/11 00:12:28;;;;;;;4.63;2.50;;;13.80;99.90;13.10;101244;;;;589157;243;24065;-80
2023/06/11 00:14:56;;;;;;;2.50;2.23;;;13.80;99.90;13.10;101247;;;;589447;242;24092;-79
2023/06/11 00:17:25;;;;;;;2.13;2.03;;;13.70;99.90;13.10;101251;;;;591351;242;24088;-80
2023/06/11 00:19:53;;;;;;;4.10;2.50;;;13.70;99.90;13.00;101251;;;;581604;244;24092;-77
2023/06/11 00:22:26;;;;;;;2.67;2.07;;;13.60;99.90;12.90;101254;;;;587598;244;24072;-80
2023/06/11 00:24:49;;;;;;;3.67;2.50;;;13.60;99.90;12.90;101243;;;;590169;243;24069;-78
2023/06/11 00:27:17;;;;;;;3.53;2.10;;;13.50;99.90;12.80;101245;;;;590071;243;24053;-79
2023/06/11 00:29:45;;;;;;;6.47;2.80;;;13.50;99.90;12.70;101246;;;;590453;243;24104;-79
2023/06/11 00:32:13;;;;;;;2.20;1.67;;;13.40;99.90;12.70;101251;;;;589963;243;24077;-81
2023/06/11 00:34:41;;;;;;;3.33;1.90;;;13.30;99.90;12.70;101252;;;;590299;243;24115;-81
2023/06/11 00:37:08;;;;;;;3.40;1.60;;;13.30;99.90;12.60;101247;;;;589934;243;24058;-82
2023/06/11 00:39:36;;;;;;;3.43;2.00;;;13.20;99.90;12.50;101248;;;;589449;243;24104;-79
2023/06/11 00:42:07;;;;;;;4.47;2.57;;;13.20;99.90;12.50;101245;;;;589479;243;24081;-79
2023/06/11 00:44:33;;;;;;;2.70;2.20;;;13.10;99.90;12.40;101244;;;;580642;244;24073;-79
2023/06/11 00:47:00;;;;;;;4.37;2.10;;;13.50;99.90;12.40;101244;;;;589994;243;24112;-81
2023/06/11 00:49:31;;;;;;;2.27;1.70;;;13.00;99.90;12.40;101239;;;;590245;243;24052;-80
2023/06/11 00:52:00;;;;;;;6.03;1.80;;;13.00;99.90;12.30;101246;;;;580929;244;24073;-82
2023/06/11 00:54:25;;;;;;;2.10;1.67;;;12.90;99.90;12.30;101247;;;;580891;244;24081;-81
2023/06/11 00:56:56;;;;;;;2.00;1.63;;;12.90;99.90;12.20;101248;;;;590081;244;24133;-82
2023/06/11 00:59:22;;;;;;;4.87;2.27;;;12.90;99.90;12.20;101243;;;;580337;244;24138;-80
2023/06/11 01:01:52;;;;;;;2.00;1.90;;;12.80;99.90;12.20;101242;;;;589022;243;24148;-80
2023/06/11 01:04:23;;;;;;;3.63;2.13;;;12.80;99.90;12.10;101247;;;;579572;244;24108;-81
2023/06/11 01:06:49;;;;;;;2.73;1.80;;;12.70;99.90;12.10;101248;;;;580425;244;24160;-81
2023/06/11 01:09:19;;;;;;;2.63;2.10;;;12.70;99.90;12.00;101244;;;;580380;244;24207;-80
2023/06/11 01:11:49;;;;;;;4.10;2.13;;;12.60;99.90;12.00;101244;;;;580002;244;24058;-80
2023/06/11 01:14:19;;;;;;;4.00;1.80;;;12.60;99.90;12.00;101237;;;;586146;244;24147;-81
2023/06/11 01:16:53;;;;;;;2.53;2.30;;;12.60;99.90;11.90;101235;;;;589508;243;24061;-79
2023/06/11 01:19:47;;;;;;;5.37;2.60;;;12.60;99.90;11.90;101236;;;;560125;252;24150;-79
2023/06/11 01:22:18;;;;;;;4.83;2.20;;;12.50;99.90;11.80;101230;;;;559150;253;24218;-79
2023/06/11 01:24:54;;;;;;;7.00;2.63;;;12.50;99.90;11.80;101227;;;;592436;242;24154;-79
2023/06/11 01:27:44;;;;;;;2.10;2.00;;;12.50;99.90;11.80;101231;;;;580437;243;24122;-79
2023/06/11 01:30:17;;;;;;;2.83;2.53;;;12.50;99.90;11.80;101229;;;;590145;243;24080;-79
2023/06/11 01:32:40;;;;;;;3.83;1.80;;;12.40;99.90;11.80;101231;;;;589851;243;24080;-82
2023/06/11 01:35:08;;;;;;;2.67;1.87;;;12.40;99.90;11.70;101232;;;;587611;244;24088;-81
2023/06/11 01:37:36;;;;;;;3.20;2.27;;;12.40;99.90;11.70;101237;;;;580700;244;24091;-79
2023/06/11 01:40:05;;;;;;;2.03;1.80;;;12.30;99.90;11.70;101242;;;;589446;243;24135;-79
2023/06/11 01:42:33;;;;;;;2.77;2.47;;;12.30;99.90;11.70;101242;;;;581398;244;24062;-81
2023/06/11 01:45:01;;;;;;;5.57;1.90;;;12.30;99.90;11.60;101234;;;;590247;243;24155;-81
2023/06/11 01:47:29;;;;;;;4.83;2.17;;;12.30;99.90;11.60;101241;;;;590665;243;24062;-81
2023/06/11 01:49:57;;;;;;;6.20;1.93;;;12.30;99.90;11.60;101243;;;;590626;243;24178;-81
2023/06/11 01:52:25;;;;;;;3.87;2.30;;;12.20;99.90;11.60;101239;;;;590348;243;24051;-79
2023/06/11 01:54:53;;;;;;;1.77;1.67;;;12.20;99.90;11.60;101237;;;;587175;244;24177;-80
2023/06/11 01:57:20;;;;;;;2.53;2.33;;;12.20;99.90;11.60;101247;;;;589723;243;24084;-82
2023/06/11 01:59:48;;;;;;;2.20;1.97;;;12.20;99.90;11.60;101247;;;;589959;243;24124;-79
2023/06/11 02:02:16;;;;;;;2.03;1.93;;;12.20;99.90;11.60;101244;;;;589526;243;24066;-81
2023/06/11 02:04:44;;;;;;;2.93;1.90;;;12.20;99.90;11.60;101247;;;;590041;243;24072;-83
2023/06/11 02:07:13;;;;;;;5.83;2.23;;;12.20;99.90;11.60;101251;;;;590068;243;24192;-81
2023/06/11 02:09:40;;;;;;;7.63;2.17;;;12.20;99.90;11.60;101248;;;;589385;243;24137;-81
2023/06/11 02:12:08;;;;;;;1.80;1.70;;;12.20;99.90;11.50;101251;;;;589308;243;24056;-79
2023/06/11 02:14:37;;;;;;;8.43;2.50;;;12.20;99.90;11.60;101248;;;;588795;243;24122;-79
2023/06/11 02:17:05;;;;;;;1.70;1.60;;;12.20;99.90;11.60;101251;;;;589316;243;24077;-79
2023/06/11 02:19:33;;;;;;;2.77;2.50;;;12.20;99.90;11.60;101249;;;;589277;243;24042;-79
2023/06/11 02:22:01;;;;;;;2.53;1.90;;;12.20;99.90;11.60;101253;;;;589391;243;24059;-80
2023/06/11 02:24:29;;;;;;;2.93;1.90;;;12.30;99.90;11.60;101255;;;;589194;243;24106;-80
2023/06/11 02:26:57;;;;;;;3.43;1.80;;;12.30;99.90;11.70;101257;;;;581207;244;35216;-80
2023/06/11 02:29:25;;;;;;;2.23;1.80;;;12.20;99.90;11.70;101252;;;;589355;243;24062;-79
2023/06/11 02:31:53;;;;;;;2.03;1.83;;;12.30;99.90;11.70;101255;;;;588920;243;24083;-79
2023/06/11 02:34:21;;;;;;;4.30;1.70;;;12.30;99.90;11.70;101255;;;;589117;243;24084;-78
2023/06/11 02:36:52;;;;;;;2.47;2.00;;;12.30;99.90;11.70;101254;;;;589217;243;24176;-79
2023/06/11 02:39:19;;;;;;;1.83;1.67;;;12.40;99.90;11.70;101257;;;;580518;243;24096;-79
2023/06/11 02:41:44;;;;;;;2.50;2.30;;;12.40;99.90;11.80;101251;;;;581359;243;24120;-79
2023/06/11 02:44:12;;;;;;;1.60;1.50;;;12.40;99.90;11.80;101253;;;;580602;244;24111;-78
2023/06/11 02:46:40;;;;;;;5.53;1.83;;;12.50;99.90;11.80;101259;;;;590227;243;24049;-80
2023/06/11 02:49:08;;;;;;;2.77;2.27;;;12.40;99.90;11.80;101261;;;;590005;243;24175;-79
2023/06/11 02:51:37;;;;;;;6.17;2.13;;;12.50;99.90;11.90;101265;;;;589891;243;24068;-79
2023/06/11 02:54:06;;;;;;;1.73;1.30;;;12.50;99.90;11.90;101264;;;;589923;243;24065;-79
2023/06/11 02:56:37;;;;;;;3.10;1.93;;;12.50;99.90;11.90;101276;;;;589409;243;24072;-79
2023/06/11 02:59:01;;;;;;;3.00;1.80;;;12.50;99.90;12.00;101273;;;;580052;244;24135;-79
2023/06/11 03:01:29;;;;;;;4.93;2.20;;;12.60;99.90;12.10;101275;;;;590066;243;24096;-80
2023/06/11 03:03:57;;;;;;;2.00;1.40;;;12.70;99.90;12.20;101269;;;;589781;243;24135;-79
2023/06/11 03:06:25;;;;;;;3.50;2.30;;;12.70;99.90;12.20;101276;;;;589570;243;24046;-79
2023/06/11 03:08:53;;;;;;;2.63;2.23;;;12.80;99.90;12.30;101287;;;;589583;243;24055;-79
2023/06/11 03:11:21;;;;;;;2.37;1.73;;;12.90;99.90;12.40;101284;;;;589662;243;24100;-80
2023/06/11 03:13:49;;;;;;;1.63;1.53;;;13.00;99.90;12.80;101284;;;;590111;243;24056;-79
2023/06/11 03:16:17;;;;;;;1.30;1.20;;;13.30;99.90;13.50;101282;;;;589943;243;24134;-79
2023/06/11 03:18:46;;;;;;;4.43;1.40;;;14.50;99.90;14.20;101287;;;;589447;243;24330;-79
2023/06/11 03:21:14;;;;;;;1.80;1.50;;;15.20;99.90;14.90;101287;;;;580056;244;24077;-78
2023/06/11 03:23:43;;;;;;;2.40;2.00;;;15.90;99.90;15.50;101286;;;;588927;243;24251;-78
2023/06/11 03:26:11;;;;;;;2.73;1.77;;;15.80;99.90;16.20;101284;;;;588878;243;24095;-80
2023/06/11 03:28:39;;;;;;;3.93;2.07;;;16.50;99.90;16.60;101291;;;;586001;244;24144;-80
2023/06/11 03:31:07;;;;;;;5.77;2.37;;;17.00;99.90;17.10;101297;;;;588671;243;23272;-80
2023/06/11 03:33:35;;;;;;;6.47;2.70;;;17.50;99.90;17.60;101299;;;;580099;244;24073;-81
2023/06/11 03:36:02;;;;;;;2.20;1.90;;;18.00;99.10;18.20;101300;;;;588992;243;24056;-79
2023/06/11 03:38:30;;;;;;;5.30;1.97;;;18.60;97.40;18.70;101300;;;;588777;243;24122;-79
2023/06/11 03:40:58;;;;;;;3.37;1.60;;;19.00;95.60;19.10;101295;;;;580407;244;24144;-81
2023/06/11 03:43:26;;;;;;;2.33;1.77;;;19.50;94.20;19.50;101309;;;;586518;244;24050;-78
2023/06/11 03:45:55;;;;;;;2.60;1.93;;;20.30;91.20;19.80;101305;;;;589377;243;24086;-79
2023/06/11 03:48:24;;;;;;;3.90;1.67;;;20.80;89.60;20.30;101315;;;;589667;243;24043;-80
2023/06/11 03:50:52;;;;;;;2.40;1.50;;;20.70;89.50;20.80;101317;;;;591159;242;24040;-79
2023/06/11 03:53:20;;;;;;;4.77;1.80;;;21.20;86.20;21.20;101316;;;;590824;242;23112;-82
2023/06/11 03:55:47;;;;;;;4.93;1.80;;;21.70;83.70;21.70;101326;;;;590273;242;24098;-79
2023/06/11 03:58:15;;;;;;;1.83;1.70;;;22.20;80.50;21.90;101327;;;;587329;241;24105;-80
2023/06/11 04:00:43;;;;;;;6.83;2.47;;;22.50;78.40;22.30;101323;;;;589393;243;24047;-80
2023/06/11 04:03:11;;;;;;;2.90;2.00;;;22.90;75.50;22.70;101329;;;;580554;244;24159;-80
2023/06/11 04:05:41;;;;;;;3.67;1.80;;;23.30;73.30;22.80;101330;;;;589484;243;24086;-81
2023/06/11 04:08:07;;;;;;;2.03;1.93;;;23.50;72.10;23.40;101336;;;;589377;243;24106;-81
2023/06/11 04:10:35;;;;;;;1.57;1.47;;;24.00;70.50;23.90;101338;;;;589292;243;24120;-81
2023/06/11 04:13:03;;;;;;;1.90;1.43;;;24.50;68.20;24.30;101347;;;;589267;243;24045;-81
2023/06/11 04:15:31;;;;;;;1.93;1.80;;;25.00;65.70;24.50;101337;;;;589221;243;23092;-80
2023/06/11 04:17:59;;;;;;;5.27;2.10;;;25.70;62.90;25.00;101344;;;;589475;244;23107;-79
2023/06/11 04:20:28;;;;;;;1.93;1.83;;;26.10;61.60;25.40;101345;;;;589625;243;24066;-81
2023/06/11 04:22:56;;;;;;;3.43;1.70;;;26.10;61.60;25.80;101343;;;;589492;243;23056;-80
2023/06/11 04:25:28;;;;;;;3.30;1.90;;;26.50;60.80;26.00;101344;;;;580568;244;23059;-80
2023/06/11 04:27:53;;;;;;;3.03;1.50;;;26.80;58.60;26.20;101349;;;;579978;244;23096;-81
2023/06/11 04:30:20;;;;;;;3.43;1.80;;;27.10;58.00;26.50;101356;;;;588874;243;23130;-80
2023/06/11 04:32:54;;;;;;;4.00;1.60;;;27.50;57.70;27.00;101358;;;;589288;243;23114;-79
2023/06/11 04:35:16;;;;;;;1.63;1.53;;;28.00;56.10;27.30;101360;;;;580193;244;24118;-78
2023/06/11 04:37:45;;;;;;;4.93;2.10;;;28.70;54.60;27.80;101361;;;;588935;243;23127;-81
2023/06/11 04:40:13;;;;;;;8.50;1.73;;;29.00;53.90;28.00;101371;;;;589132;243;23191;-79
2023/06/11 04:42:41;;;;;;;6.45;3.60;;;29.00;53.80;28.20;101363;;;;589197;243;24129;-80
2023/06/11 04:45:09;;;;;;;4.53;1.50;;;29.40;52.80;28.60;101364;;;;589383;243;23066;-79
2023/06/11 04:47:37;;;;;;;2.03;1.70;;;29.70;52.10;28.70;101364;;;;586085;244;23085;-79
2023/06/11 04:50:06;;;;;;;4.65;1.83;;;30.00;51.30;28.90;101367;;;;586664;243;23063;-79
2023/06/11 04:52:42;;;;;;;1.70;1.60;;;30.30;50.50;29.00;101369;;;;578287;244;23130;-80
2023/06/11 04:55:12;;;;;;;3.67;2.00;;;30.20;50.40;29.60;101376;;;;580135;244;23083;-79
2023/06/11 04:57:40;;;;;;;6.57;2.37;;;30.60;49.60;29.80;101377;;;;580269;244;23159;-81
2023/06/11 05:00:08;;;;;;;2.30;1.60;;;31.00;49.10;29.80;101370;;;;579650;244;23133;-80
2023/06/11 05:02:32;;;;;;;4.53;1.80;;;31.20;48.50;30.00;101377;;;;586881;243;23149;-80
2023/06/11 05:05:00;;;;;;;3.40;1.80;;;31.40;48.40;30.60;101378;;;;590052;242;23102;-80
2023/06/11 05:07:28;;;;;;;3.08;2.15;;;31.80;47.60;30.90;101379;;;;589950;242;23095;-81
2023/06/11 05:09:56;;;;;;;1.75;1.65;;;32.20;46.90;31.40;101381;;;;590108;243;23080;-82
2023/06/11 05:12:24;;;;;;;2.75;1.55;;;32.60;46.50;31.70;101372;;;;589847;243;23103;-81
2023/06/11 05:14:52;;;;;;;1.80;1.50;;;33.00;46.40;32.30;101377;;;;589483;243;23099;-80
2023/06/11 05:17:20;;;;;;;2.42;2.20;;;33.40;45.10;32.50;101391;;;;589328;243;23079;-81
2023/06/11 05:19:48;;;;;;;4.10;1.83;;;33.70;44.40;32.70;101389;;;;589442;243;23084;-82
2023/06/11 05:22:15;;;;;;;2.28;1.80;;;33.90;44.10;32.90;101391;;;;589544;243;23088;-81
2023/06/11 05:24:43;;;;;;;2.87;1.87;;;34.10;43.80;33.40;101390;;;;580645;244;23083;-80
2023/06/11 05:27:11;;;;;;;2.40;2.20;;;34.40;43.20;33.60;101396;;;;589560;243;23088;-79
2023/06/11 05:29:40;;;;;;;3.35;1.90;;;34.80;42.90;33.80;101399;;;;589412;243;23095;-80
2023/06/11 05:32:08;;;;;;;2.70;1.67;;;35.00;43.00;34.20;101398;;;;586491;244;23143;-83
2023/06/11 05:34:37;;;;;;;4.07;1.85;;;35.30;42.50;34.70;101405;;;;580139;244;23142;-82
2023/06/11 05:37:03;;;;;;;3.50;1.92;;;35.70;41.40;34.90;101409;;;;589259;243;23129;-82
2023/06/11 05:39:31;;;;;;;7.95;2.60;;;35.90;41.00;35.30;101409;;;;579906;244;23103;-82
2023/06/11 05:41:59;;;;;;;6.45;2.10;;;36.30;41.10;36.00;101407;;;;588832;243;23117;-82
2023/06/11 05:44:27;;;;;;;1.60;1.60;;;36.80;40.20;36.20;101409;;;;579940;244;23097;-82
2023/06/11 05:46:58;;;;;;;2.20;1.85;;;37.10;40.10;36.80;101413;;;;588815;243;23102;-81
2023/06/11 05:49:23;;;;;;;2.90;1.77;;;37.60;38.70;37.00;101410;;;;579622;244;23113;-81
2023/06/11 05:51:51;;;;;;;4.72;1.90;;;38.10;38.20;37.20;101407;;;;589238;243;23087;-81
2023/06/11 05:54:19;;;;;;;2.85;1.83;;;38.10;38.20;37.90;101413;;;;584156;243;35207;-83
2023/06/11 05:56:47;;;;;;;5.22;2.03;;;38.60;37.50;38.20;101417;;;;589833;243;23072;-79
2023/06/11 05:59:15;;;;;;;2.67;2.08;;;38.90;37.00;38.30;101417;;;;589919;242;23119;-79
2023/06/11 06:01:45;;;;;;;2.60;1.80;;;39.10;37.10;38.70;101417;;;;586410;244;23094;-84
2023/06/11 06:04:11;;;;;;;1.95;1.60;;;39.40;36.20;38.70;101419;;;;588936;243;23145;-81
2023/06/11 06:06:39;;;;;;;2.85;1.60;;;39.40;35.60;39.00;101424;;;;579898;244;23087;-82
2023/06/11 06:09:07;;;;;;;2.10;1.90;;;39.70;35.80;39.40;101427;;;;589359;243;23193;-82
2023/06/11 06:11:35;;;;;;;3.15;1.92;;;40.00;35.70;39.60;101425;;;;590279;243;23178;-83
2023/06/11 06:14:06;;;;;;;1.80;1.70;;;40.30;35.80;39.60;101421;;;;591540;242;23184;-81
2023/06/11 06:16:31;;;;;;;2.20;1.95;;;40.50;36.20;39.90;101435;;;;581982;243;23119;-82
2023/06/11 06:18:59;;;;;;;4.57;2.00;;;40.50;35.60;39.80;101433;;;;591136;242;23091;-83
2023/06/11 06:21:27;;;;;;;8.68;2.28;;;40.50;35.40;39.60;101438;;;;591123;243;23110;-80
2023/06/11 06:23:55;;;;;;;2.00;1.70;;;40.30;35.60;39.70;101429;;;;581992;244;24087;-83
2023/06/11 06:26:26;;;;;;;2.20;2.03;;;40.40;35.60;40.00;101429;;;;591154;243;24121;-84
2023/06/11 06:28:56;;;;;;;6.03;2.17;;;40.60;35.70;40.30;101433;;;;591093;243;23097;-83
2023/06/11 06:31:22;;;;;;;2.37;1.85;;;40.70;35.20;40.30;101431;;;;581031;244;23072;-83
2023/06/11 06:33:50;;;;;;;6.10;2.15;;;40.80;35.00;40.00;101431;;;;589299;243;23093;-84
2023/06/11 06:36:19;;;;;;;1.90;1.77;;;40.70;34.60;39.80;101423;;;;580156;244;23085;-83
2023/06/11 06:38:45;;;;;;;3.70;1.65;;;40.60;35.10;39.80;101435;;;;580162;244;23181;-84
2023/06/11 06:41:13;;;;;;;3.42;1.92;;;40.50;34.90;39.90;101427;;;;580103;244;23119;-83
2023/06/11 06:43:42;;;;;;;2.25;1.80;;;40.80;35.00;40.30;101428;;;;589199;243;23118;-84
2023/06/11 06:46:10;;;;;;;2.53;1.65;;;40.70;34.90;40.80;101439;;;;589290;243;23068;-82
2023/06/11 06:48:38;;;;;;;2.50;2.10;;;41.20;35.00;40.90;101436;;;;589266;243;23115;-82
2023/06/11 06:51:06;;;;;;;5.55;1.95;;;41.60;34.60;41.30;101429;;;;588760;243;23064;-84
2023/06/11 06:53:34;;;;;;;3.42;2.03;;;41.60;34.50;41.50;101424;;;;589222;243;23065;-84
2023/06/11 06:56:05;;;;;;;3.10;2.08;;;41.90;34.20;41.70;101427;;;;589372;243;23056;-83
2023/06/11 06:58:30;;;;;;;4.22;2.17;;;42.10;34.00;41.80;101425;;;;580236;244;23144;-81
2023/06/11 07:00:58;;;;;;;3.58;1.70;;;42.20;33.70;41.90;101424;;;;589641;243;23114;-83
2023/06/11 07:03:26;;;;;;;3.28;1.70;;;42.30;33.70;41.70;101437;;;;586462;244;24169;-82
2023/06/11 07:05:54;;;;;;;4.93;1.90;;;42.20;33.60;41.00;101434;;;;589074;243;23104;-84
2023/06/11 07:08:25;;;;;;;5.95;2.83;;;41.80;34.00;41.10;101430;;;;588869;243;23092;-84
2023/06/11 07:10:50;;;;;;;4.40;1.62;;;41.70;34.10;41.50;101432;;;;583192;244;23080;-83
2023/06/11 07:13:18;;;;;;;1.90;1.80;;;41.90;34.20;41.80;101435;;;;579763;244;23081;-83
2023/06/11 07:15:46;;;;;;;2.20;1.73;;;42.30;33.80;41.90;101430;;;;579815;244;23091;-84
2023/06/11 07:18:17;;;;;;;4.53;1.80;;;42.20;33.70;42.20;101429;;;;589070;243;23074;-83
2023/06/11 07:20:46;;;;;;;5.10;1.85;;;42.50;33.50;41.90;101426;;;;579913;244;23077;-83
2023/06/11 07:23:17;;;;;;;5.43;2.25;;;42.40;33.40;41.90;101437;;;;589367;243;23118;-84
2023/06/11 07:25:43;;;;;;;2.72;1.77;;;42.40;33.30;41.30;101443;;;;582271;243;23075;-81
2023/06/11 07:28:10;;;;;;;2.87;1.80;;;42.10;33.40;41.00;101432;;;;591263;242;23066;-81
2023/06/11 07:30:38;;;;;;;7.03;1.90;;;41.70;33.90;41.20;101432;;;;590811;242;23074;-82
2023/06/11 07:33:10;;;;;;;2.12;1.85;;;41.80;34.60;41.20;101436;;;;590726;243;23086;-84
2023/06/11 07:35:34;;;;;;;4.05;2.10;;;41.80;33.80;40.80;101421;;;;581047;244;23100;-84
2023/06/11 07:38:02;;;;;;;1.60;1.50;;;41.50;33.70;40.60;101435;;;;589578;243;23127;-82
2023/06/11 07:40:30;;;;;;;3.75;1.95;;;41.30;34.10;40.50;101440;;;;580389;244;23176;-84
2023/06/11 07:42:58;;;;;;;2.25;1.85;;;41.20;34.00;40.60;101437;;;;580988;244;23087;-81
2023/06/11 07:45:29;;;;;;;4.70;1.90;;;41.10;34.10;40.30;101435;;;;590054;243;23110;-82
2023/06/11 07:47:54;;;;;;;3.20;1.75;;;41.10;33.90;40.20;101436;;;;572763;247;23146;-82
2023/06/11 07:50:22;;;;;;;3.15;2.00;;;40.90;34.20;39.90;101441;;;;566126;238;23103;-80
2023/06/11 07:52:49;;;;;;;1.83;1.75;;;40.70;34.50;39.70;101437;;;;583158;241;23044;-80
2023/06/11 07:55:17;;;;;;;4.43;2.10;;;40.50;34.40;39.40;101447;;;;578870;244;23105;-80
2023/06/11 07:57:46;;;;;;;2.37;1.87;;;40.30;34.30;39.20;101428;;;;588454;241;24084;-79
2023/06/11 08:00:17;;;;;;;5.30;1.80;;;40.00;34.60;39.00;101446;;;;573838;246;23118;-80
2023/06/11 08:02:41;;;;;;;4.45;2.03;;;39.80;34.40;38.80;101440;;;;583999;241;23040;-80
2023/06/11 08:05:17;;;;;;;2.10;1.90;;;39.60;34.70;38.90;101436;;;;578160;244;23080;-79
2023/06/11 08:07:37;;;;;;;3.45;1.90;;;39.70;34.60;38.70;101441;;;;578034;244;23126;-80
2023/06/11 08:10:09;;;;;;;5.95;1.90;;;39.60;34.70;38.80;101428;;;;578780;244;23083;-77
2023/06/11 08:12:33;;;;;;;6.85;1.83;;;39.60;34.80;39.00;101438;;;;578388;244;23114;-80
2023/06/11 08:15:02;;;;;;;4.18;1.80;;;39.80;34.80;39.20;101436;;;;578748;244;23135;-79
2023/06/11 08:17:30;;;;;;;3.37;1.80;;;39.80;34.30;39.60;101419;;;;578758;244;23122;-79
2023/06/11 08:19:57;;;;;;;3.30;1.85;;;40.10;34.50;39.90;101432;;;;578981;244;23070;-79
2023/06/11 08:22:25;;;;;;;5.97;1.50;;;40.30;34.60;40.40;101427;;;;578873;244;23109;-79
2023/06/11 08:24:53;;;;;;;3.35;1.80;;;40.80;33.80;40.70;101432;;;;578713;244;23083;-79
2023/06/11 08:27:21;;;;;;;2.62;1.80;;;41.30;33.50;40.40;101436;;;;579191;244;23067;-80
2023/06/11 08:29:49;;;;;;;2.00;1.90;;;41.30;33.50;40.00;101440;;;;579096;244;23070;-79
2023/06/11 08:32:17;;;;;;;2.60;1.73;;;41.00;33.50;40.00;101433;;;;579019;244;23098;-79
2023/06/11 08:34:45;;;;;;;2.58;1.92;;;40.90;33.80;40.30;101434;;;;579101;244;23056;-79
2023/06/11 08:37:13;;;;;;;7.43;2.05;;;40.90;34.10;41.10;101435;;;;579598;243;23075;-80
2023/06/11 08:39:41;;;;;;;2.35;1.90;;;41.50;33.70;41.20;101441;;;;574816;243;35120;-80
2023/06/11 08:42:10;;;;;;;3.78;2.05;;;41.90;33.30;40.90;101436;;;;579532;244;23054;-80
2023/06/11 08:44:38;;;;;;;2.33;1.90;;;41.70;33.40;40.50;101435;;;;579755;244;23073;-79
2023/06/11 08:47:10;;;;;;;2.40;1.90;;;41.40;33.10;40.30;101437;;;;579366;244;23098;-80
2023/06/11 08:49:36;;;;;;;7.30;1.65;;;41.20;33.30;39.90;101434;;;;578716;244;23103;-81
2023/06/11 08:52:03;;;;;;;3.22;1.92;;;41.10;33.20;39.90;101436;;;;579098;244;23073;-80
2023/06/11 08:54:31;;;;;;;2.92;2.00;;;41.00;33.80;40.30;101430;;;;579087;244;24152;-80
2023/06/11 08:56:59;;;;;;;4.28;2.28;;;41.20;33.90;40.70;101433;;;;579291;244;23116;-81
2023/06/11 08:59:28;;;;;;;5.78;2.05;;;41.50;34.30;41.10;101424;;;;579080;244;24134;-80
2023/06/11 09:01:56;;;;;;;1.90;1.80;;;41.90;33.40;41.40;101424;;;;579153;244;24093;-80
2023/06/11 09:04:24;;;;;;;4.25;1.83;;;42.20;33.00;41.40;101433;;;;579036;244;23164;-81
2023/06/11 09:06:58;;;;;;;2.15;2.00;;;42.50;33.00;40.80;101434;;;;579081;244;23099;-80
2023/06/11 09:09:30;;;;;;;2.65;2.20;;;42.20;33.20;40.60;101432;;;;578995;244;23138;-80
2023/06/11 09:11:55;;;;;;;1.98;1.87;;;41.90;33.50;40.90;101433;;;;578510;244;23132;-79
2023/06/11 09:14:23;;;;;;;3.58;2.03;;;42.00;34.00;41.60;101423;;;;578759;244;23087;-81
2023/06/11 09:16:51;;;;;;;2.83;1.90;;;42.50;33.60;42.00;101435;;;;573608;244;46003;-80
2023/06/11 09:19:23;;;;;;;2.22;2.03;;;43.00;33.50;41.70;101428;;;;578811;244;23084;-79
2023/06/11 09:21:54;;;;;;;3.10;1.80;;;42.90;32.70;41.70;101421;;;;578451;244;23107;-81
2023/06/11 09:24:25;;;;;;;4.90;1.70;;;43.00;32.60;41.50;101433;;;;578800;244;23064;-81
2023/06/11 09:26:53;;;;;;;4.87;1.95;;;42.80;33.00;41.90;101427;;;;578842;244;23083;-80
2023/06/11 09:29:24;;;;;;;7.40;2.17;;;43.10;32.60;41.40;101423;;;;573892;245;23094;-79
2023/06/11 09:32:04;;;;;;;4.45;1.85;;;42.80;33.10;41.40;101427;;;;584422;241;23028;-81
2023/06/11 09:34:32;;;;;;;4.00;1.80;;;42.70;32.90;41.00;101431;;;;585462;241;23049;-80
2023/06/11 09:37:00;;;;;;;2.20;2.00;;;42.30;33.40;41.10;101427;;;;584498;241;23029;-80
2023/06/11 09:39:35;;;;;;;6.53;2.05;;;42.40;33.00;41.00;101435;;;;577988;244;23119;-78
2023/06/11 09:41:59;;;;;;;7.12;2.00;;;42.40;32.90;40.70;101437;;;;578364;244;23097;-81
2023/06/11 09:44:27;;;;;;;1.73;1.67;;;42.40;32.80;40.30;101443;;;;578729;244;23075;-80
2023/06/11 09:46:54;;;;;;;6.28;1.80;;;42.00;33.20;39.90;101435;;;;578863;244;23071;-80
2023/06/11 09:49:22;;;;;;;4.68;2.28;;;41.80;33.60;40.00;101432;;;;579866;243;23084;-80
2023/06/11 09:51:50;;;;;;;2.72;1.85;;;41.70;33.70;40.00;101424;;;;579913;243;24100;-80
2023/06/11 09:54:21;;;;;;;1.73;1.60;;;41.70;33.60;40.30;101417;;;;579536;244;23086;-81
2023/06/11 09:56:46;;;;;;;4.40;2.10;;;41.90;33.40;41.00;101423;;;;579614;244;23077;-81
2023/06/11 09:59:15;;;;;;;5.90;1.87;;;43.10;32.60;41.70;101427;;;;579230;244;23110;-79
2023/06/11 10:01:47;;;;;;;6.43;2.10;;;43.10;32.60;41.10;101423;;;;579039;244;24139;-81
2023/06/11 10:04:11;;;;;;;7.55;2.10;;;43.00;32.30;40.30;101424;;;;578860;244;23059;-81
2023/06/11 10:06:39;;;;;;;3.70;1.90;;;42.30;32.80;39.50;101421;;;;579137;244;23079;-80
2023/06/11 10:09:07;;;;;;;3.72;1.85;;;41.70;33.10;39.10;101424;;;;578714;244;24161;-81
2023/06/11 10:11:44;;;;;;;4.60;1.80;;;41.20;33.60;38.80;101428;;;;578887;244;23075;-81
2023/06/11 10:14:02;;;;;;;7.00;1.87;;;40.60;33.60;38.50;101431;;;;577860;244;23099;-79
2023/06/11 10:16:30;;;;;;;4.40;2.00;;;40.20;33.90;37.80;101438;;;;579036;244;23066;-80
2023/06/11 10:19:07;;;;;;;4.50;1.62;;;39.60;34.20;37.40;101431;;;;578889;244;24155;-80
2023/06/11 10:21:44;;;;;;;7.60;1.90;;;39.00;34.50;36.50;101430;;;;578833;244;23170;-80
2023/06/11 10:24:10;;;;;;;2.87;1.87;;;38.30;35.40;36.20;101427;;;;578741;244;23135;-80
2023/06/11 10:26:37;;;;;;;1.65;1.55;;;37.70;36.00;35.80;101428;;;;577594;244;23079;-81
2023/06/11 10:29:05;;;;;;;4.20;1.70;;;37.40;36.20;35.10;101433;;;;579500;244;23117;-79
2023/06/11 10:31:44;;;;;;;4.18;1.70;;;36.90;36.20;34.50;101424;;;;578961;244;23073;-80
2023/06/11 10:34:10;;;;;;;4.32;1.90;;;35.40;37.50;33.60;101432;;;;579714;244;24111;-79
2023/06/11 10:36:41;;;;;;;1.62;1.52;;;34.30;38.60;32.30;101432;;;;579165;244;23141;-78
2023/06/11 10:39:09;;;;;;;4.05;2.10;;;34.20;38.50;30.90;101427;;;;579046;244;23149;-78
2023/06/11 10:41:44;;;;;;;2.87;1.35;;;32.80;40.60;29.50;101417;;;;578819;244;23070;-78
2023/06/11 10:44:08;;;;;;;1.92;1.58;;;31.20;42.80;28.60;101420;;;;578316;244;24089;-77
2023/06/11 10:46:57;;;;;;;1.57;1.47;;;29.80;44.60;27.40;101418;;;;578814;244;23062;-78
2023/06/11 10:49:26;;;;;;;2.43;1.50;;;27.10;48.10;26.10;101424;;;;578720;244;24091;-78
2023/06/11 10:51:54;;;;;;;3.37;1.17;;;27.00;48.00;24.80;101418;;;;578819;244;24061;-78
2023/06/11 10:54:28;;;;;;;8.27;1.67;;;24.80;52.70;23.90;101407;;;;578946;244;23094;-77
2023/06/11 10:56:58;;;;;;;5.77;1.67;;;24.70;52.60;23.10;101407;;;;578433;244;23070;-79
2023/06/11 10:59:29;;;;;;;5.50;1.60;;;23.30;55.90;22.50;101402;;;;579078;242;24089;-78
2023/06/11 11:01:59;;;;;;;1.30;1.30;;;23.10;55.80;21.90;101401;;;;579849;243;24076;-78
2023/06/11 11:04:26;;;;;;;2.33;1.20;;;22.60;57.70;21.50;101401;;;;579799;244;24062;-77
2023/06/11 11:06:55;;;;;;;1.10;1.10;;;22.10;56.90;21.10;101408;;;;579809;244;24089;-76
2023/06/11 11:09:24;;;;;;;5.57;1.57;;;21.70;58.00;20.80;101399;;;;579146;244;23080;-79
2023/06/11 11:11:52;;;;;;;2.70;1.50;;;21.30;58.80;20.50;101387;;;;579441;244;23081;-78
2023/06/11 11:14:19;;;;;;;1.37;1.27;;;21.10;59.00;20.30;101402;;;;579350;244;24074;-78